Terminal Aerodrome Forecast
Issued by NWS

Home | Current Version | Previous Version | Graphics & Text | Print | Product List | Glossary On
Versions: 1 2 3 4 5 6 7 8 9 10 11 12 13 14 15 16 17 18 19 20 21 22 23 24 25 26 27 28
000
FTUS43 KABR 021700
TAFATY
TAF
KATY 021738Z 0218/0318 16014KT P6SM FEW100
     FM022100 16019G26KT P6SM OVC100
     FM030900 19016KT 6SM -SN OVC020
     FM031100 30016G23KT 3SM -SN OVC020
     FM031400 33020G30KT 1/4SM SN BLSN OVC015=

USA.gov is the U.S. government's official web portal to all federal, state and local government web resources and services.